Moran, Minnesota
Current Conditions -  °F | °C
As of 12:13 PM on Thursday 23 Oct 2014 (Local Time) from KSAZ Reporting Station
Clear Clear  
Wind Chill: 55°   Ceiling: Unl
Heat Index: 55°   Visibility: 10mi
Dew Point: 48°   Wind: 3mph
Humidity: 77%   Direction: 220°SW
Pressure: 29.96"   Gusts: NA
Location:  46.4416°N, 94.6389°W
Report Text: KSAZ 231713Z AUTO 22003KT 10SM CLR 13/09 A2996 RMK AO2
Loading
Personal Weather Stations






























Interactive Weather Map New forecast layout! Learn more

10-Day Weather Forecast

Advertisements
Track Severe Weather on mobile